Details From EBLG - Liege
To LJLJ - Ljubljana
Flight Number -
Tags Generated
Created
Modified
Stats Distance 445 nm / 825 km
Max Altitude 0 ft / 0 m
Waypoints 4
Social Downloads 2
Likes 0
Share VATSIM

Download

Looking for another format? Having issues loading an existing format? Contact us
Advertisement - Login to hide

Notes

Generated

Route

EBLG DS512 ISTRI LJLJ

ID Type Via Altitude Latitude Longitude Leg Dist Tot Dist Heading (true) Name
O EBLG APT - 0 ft / 0 m 50.63128˚ 5.43014˚ - 0 nm - -
DS512 FIX - 0 ft / 0 m 48.76888˚ 9.64348˚ 198 nm 198 nm 123° / 126° -
ISTRI FIX - 0 ft / 0 m 46.49805˚ 13.95939˚ 221 nm 419 nm 126° / 130° -
O LJLJ APT - 0 ft / 0 m 46.23249˚ 14.44039˚ 25 nm 445 nm 128° / 129° -

Altitude Profile

Advertisement - Login to hide

Weather


0- 5 10 15 20 25 30 35+ Temperature / ° C

Clouds and Precipitation
Forecast for 2018-05-25 18:00 UTC. Updated 6 hours ago

Ground ~20,000 ft ~40,000 ft Winds

EBLG

Details ICAO EBLG (LGG)
Name Liege
Region Belgium
Timezone Europe/Brussels (UTC+2.0)
Stats Elevation 645 ft / 197 m (AMSL)
Location 50.638120° 5.443140°
Runways 2
Magnetic Variation 1.488° E

METAR

EBLG 252250Z 12004KT CAVOK 20/15 Q1018 NOSIG

Decode

TAF

TAF EBLG 251703Z 2518/2624 05004KT 9999 FEW040 PROB30 TEMPO 2518/2521 VRB15G25KT 3000 SHRA TSRAGR PROB30 TEMPO 2602/2607 3500 BR

Decode

Departure Runways

ID Width Length Bearing (true) Bearing (mag) Surface Threshold Offset Overrun Length
05L 148 ft / 45 m 7,664 ft / 2,336 m 44.99° 43.50° Asphalt 151 ft / 46 m 0 ft / 0 m
05R 148 ft / 45 m 10,792 ft / 3,290 m 44.99° 43.50° Asphalt 151 ft / 46 m 0 ft / 0 m
23L 148 ft / 45 m 10,792 ft / 3,290 m 225.01° 223.52° Asphalt 151 ft / 46 m 0 ft / 0 m
23R 148 ft / 45 m 7,664 ft / 2,336 m 225.01° 223.52° Asphalt 151 ft / 46 m 0 ft / 0 m

LJLJ

Details ICAO LJLJ (LJU)
Name LJUBLJANA
Region Slovenia
Timezone Europe/Ljubljana (UTC+2.0)
Stats Elevation 1,273 ft / 388 m (AMSL)
Location 46.223685° 14.457608°
Runways 1
Magnetic Variation 3.712° E

METAR

LJLJ 252300Z 18001KT 9999 SCT033 14/14 Q1021 NOSIG

Decode

TAF

TAF LJLJ 252000Z 2521/2621 29003KT 9999 FEW040 PROB40 TEMPO 2521/2610 BKN030 PROB30 TEMPO 2602/2607 0800 FG VV001 BECMG 2609/2611 12005KT PROB40 TEMPO 2611/2618 SHRA SCT050TCU BKN060 PROB30 TEMPO 2612/2617 FEW050CB BKN060

Decode

Destination Runways

ID Width Length Bearing (true) Bearing (mag) Surface Threshold Offset Overrun Length
13 148 ft / 45 m 10,811 ft / 3,295 m 126.47° 122.76° Asphalt 0 ft / 0 m 0 ft / 0 m
31 148 ft / 45 m 10,811 ft / 3,295 m 306.49° 302.78° Asphalt 0 ft / 0 m 0 ft / 0 m

Approach Navaids

Runway Type Ident Frequency Range Bearing (true) Bearing (mag) Slope Elevation
31 Localiser LJB 110.50 MHz 18 nm / 33 km 306.46° 302.75° - 1,282 ft / 391 m (AMSL)
31 Glidescope LJB 110.50 MHz 10 nm / 19 km 306.48° 302.77° 3.00° 1,198 ft / 365 m (AMSL)
31 DME LJB 110.50 MHz 18 nm / 33 km - - - 1,198 ft / 365 m (AMSL)